createdAt,value
2023-06-30T00:00:36.287Z,221.45
2023-06-30T00:01:36.297Z,222.54
2023-06-30T00:02:36.318Z,223.67
2023-06-30T00:03:36.374Z,225.19
2023-06-30T00:04:36.302Z,226.61
2023-06-30T00:05:36.295Z,227.13
2023-06-30T00:06:36.320Z,226.93
2023-06-30T00:07:36.385Z,228.87
2023-06-30T00:08:36.333Z,228.56
2023-06-30T00:09:36.355Z,228.06
2023-06-30T00:10:36.368Z,228.00
2023-06-30T00:11:36.380Z,228.47
2023-06-30T00:12:36.373Z,228.50
2023-06-30T00:13:36.383Z,228.61
2023-06-30T00:14:36.378Z,228.89
2023-06-30T00:15:36.437Z,229.71
2023-06-30T00:16:36.439Z,229.54
2023-06-30T00:17:36.453Z,230.17
2023-06-30T00:18:36.436Z,229.74
2023-06-30T00:19:36.458Z,231.25
2023-06-30T00:20:36.464Z,231.31
2023-06-30T00:21:36.480Z,230.64
2023-06-30T00:22:36.487Z,231.63
2023-06-30T00:23:36.498Z,231.61
2023-06-30T00:24:36.533Z,232.82
2023-06-30T00:25:36.539Z,232.74
2023-06-30T00:26:36.535Z,233.85
2023-06-30T00:27:36.541Z,233.20
2023-06-30T00:28:36.542Z,234.04
2023-06-30T00:29:36.571Z,234.11
2023-06-30T00:30:36.590Z,234.54
2023-06-30T00:31:36.686Z,235.37
2023-06-30T00:32:36.639Z,236.25
2023-06-30T00:33:36.563Z,235.79
2023-06-30T00:34:36.583Z,237.37
2023-06-30T00:35:36.619Z,237.69
2023-06-30T00:36:36.572Z,239.86
2023-06-30T00:37:36.583Z,240.60
2023-06-30T00:38:36.642Z,240.02
2023-06-30T00:39:36.563Z,241.96
2023-06-30T00:40:36.572Z,242.03
2023-06-30T00:41:36.585Z,241.98
2023-06-30T00:42:36.575Z,243.96
2023-06-30T00:43:36.588Z,244.62
2023-06-30T00:44:36.591Z,245.01
2023-06-30T00:45:36.656Z,246.99
2023-06-30T00:46:36.641Z,246.81
2023-06-30T00:47:36.638Z,248.53
2023-06-30T00:48:36.624Z,249.03
2023-06-30T00:49:36.632Z,249.39
2023-06-30T00:50:36.652Z,248.74
2023-06-30T00:51:36.612Z,250.06
2023-06-30T00:52:36.615Z,249.67
2023-06-30T00:53:36.636Z,249.60
2023-06-30T00:54:36.643Z,250.13
2023-06-30T00:55:36.652Z,250.00
2023-06-30T00:56:36.686Z,250.00
2023-06-30T00:57:36.649Z,249.05
2023-06-30T00:58:36.649Z,250.00
2023-06-30T00:59:36.630Z,249.25
2023-06-30T01:00:36.673Z,249.95
2023-06-30T01:01:36.692Z,249.67
2023-06-30T01:02:36.721Z,249.75
2023-06-30T01:03:36.735Z,248.74
2023-06-30T01:04:36.862Z,248.99
2023-06-30T01:05:36.682Z,249.20
2023-06-30T01:06:36.660Z,250.00
2023-06-30T01:07:36.857Z,249.42
2023-06-30T01:08:36.659Z,248.53
2023-06-30T01:09:36.678Z,248.53
2023-06-30T01:10:36.696Z,249.51
2023-06-30T01:11:36.679Z,249.86
2023-06-30T01:12:36.673Z,249.69
2023-06-30T01:13:36.688Z,249.50
2023-06-30T01:14:36.672Z,249.50
2023-06-30T01:15:36.692Z,249.64
2023-06-30T01:16:36.707Z,249.71
2023-06-30T01:17:36.703Z,249.79
2023-06-30T01:18:36.675Z,248.93
2023-06-30T01:19:36.699Z,249.56
2023-06-30T01:20:36.678Z,248.89
2023-06-30T01:21:36.671Z,249.52
2023-06-30T01:22:36.667Z,249.36
2023-06-30T01:23:36.692Z,248.91
2023-06-30T01:24:36.692Z,249.24
2023-06-30T01:25:36.733Z,248.95
2023-06-30T01:26:36.697Z,249.02
2023-06-30T01:27:36.679Z,249.40
2023-06-30T01:28:36.710Z,249.33
2023-06-30T01:29:36.714Z,249.69
2023-06-30T01:30:36.780Z,249.97
2023-06-30T01:31:36.687Z,249.49
2023-06-30T01:32:36.683Z,250.00
2023-06-30T01:33:36.673Z,250.00
2023-06-30T01:34:36.717Z,249.87
2023-06-30T01:35:37.193Z,249.38
2023-06-30T01:36:36.680Z,248.86
2023-06-30T01:37:36.686Z,249.83
2023-06-30T01:38:36.701Z,250.00
2023-06-30T01:39:36.724Z,249.53
2023-06-30T01:40:36.762Z,249.70
2023-06-30T01:41:36.760Z,249.86
2023-06-30T01:42:36.782Z,249.48
2023-06-30T01:43:36.805Z,249.55
2023-06-30T01:44:36.832Z,249.84
2023-06-30T01:45:36.881Z,249.33
2023-06-30T01:46:36.933Z,249.63
2023-06-30T01:47:36.943Z,249.42
2023-06-30T01:48:36.900Z,249.21
2023-06-30T01:49:36.912Z,248.89
2023-06-30T01:50:36.952Z,249.93
2023-06-30T01:51:36.915Z,249.62
2023-06-30T01:52:36.922Z,249.25
2023-06-30T01:53:36.939Z,249.80
2023-06-30T01:54:36.920Z,249.71
2023-06-30T01:55:36.976Z,249.47
2023-06-30T01:56:36.959Z,249.85
2023-06-30T01:57:36.949Z,249.58
2023-06-30T01:58:36.957Z,249.81
2023-06-30T01:59:36.976Z,249.06
2023-06-30T02:00:36.974Z,249.50
2023-06-30T02:01:37.012Z,249.36
2023-06-30T02:02:37.004Z,249.36
2023-06-30T02:03:37.029Z,248.65
2023-06-30T02:04:36.991Z,249.14
2023-06-30T02:05:36.986Z,249.03
2023-06-30T02:06:36.972Z,249.18
2023-06-30T02:07:37.183Z,248.75
2023-06-30T02:08:36.999Z,249.74
2023-06-30T02:09:47.254Z,249.27
2023-06-30T02:10:37.985Z,249.32
2023-06-30T02:11:36.967Z,249.38
2023-06-30T02:12:36.973Z,249.52
2023-06-30T02:13:36.942Z,250.19
2023-06-30T02:14:36.957Z,251.28
2023-06-30T02:15:36.940Z,250.00
2023-06-30T02:16:37.013Z,249.17
2023-06-30T02:17:37.002Z,249.60
2023-06-30T02:18:36.919Z,249.32
2023-06-30T02:19:36.908Z,248.27
2023-06-30T02:20:36.907Z,249.02
2023-06-30T02:21:36.897Z,249.05
2023-06-30T02:22:36.899Z,249.52
2023-06-30T02:23:36.890Z,249.51
2023-06-30T02:24:36.880Z,249.84
2023-06-30T02:25:36.877Z,249.85
2023-06-30T02:26:36.867Z,249.45
2023-06-30T02:27:36.872Z,249.41
2023-06-30T02:28:36.856Z,249.62
2023-06-30T02:29:36.842Z,249.88
2023-06-30T02:30:36.849Z,249.59
2023-06-30T02:31:36.882Z,249.41
2023-06-30T02:32:36.835Z,249.59
2023-06-30T02:33:36.825Z,249.52
2023-06-30T02:34:36.817Z,249.42
2023-06-30T02:35:36.838Z,248.82
2023-06-30T02:36:36.801Z,249.70
2023-06-30T02:37:36.785Z,248.57
2023-06-30T02:38:36.823Z,249.27
2023-06-30T02:39:36.774Z,248.71
2023-06-30T02:40:36.770Z,248.93
2023-06-30T02:41:36.773Z,248.91
2023-06-30T02:42:36.771Z,248.62
2023-06-30T02:43:36.762Z,248.74
2023-06-30T02:44:36.736Z,247.81
2023-06-30T02:45:36.761Z,249.83
2023-06-30T02:46:36.733Z,250.00
2023-06-30T02:47:36.724Z,248.33
2023-06-30T02:48:36.720Z,248.70
2023-06-30T02:49:36.727Z,248.82
2023-06-30T02:50:36.723Z,249.27
2023-06-30T02:51:36.714Z,249.35
2023-06-30T02:52:36.744Z,249.24
2023-06-30T02:53:36.711Z,249.36
2023-06-30T02:54:36.735Z,248.56
2023-06-30T02:55:38.888Z,249.84
2023-06-30T02:56:36.874Z,249.96
2023-06-30T02:57:36.885Z,248.92
2023-06-30T02:58:36.915Z,248.73
2023-06-30T02:59:36.870Z,248.47
2023-06-30T03:00:36.890Z,248.49
2023-06-30T03:01:37.018Z,249.40
2023-06-30T03:02:37.059Z,249.41
2023-06-30T03:03:37.114Z,249.11
2023-06-30T03:04:36.897Z,248.86
2023-06-30T03:05:36.928Z,249.00
2023-06-30T03:06:36.904Z,249.55
2023-06-30T03:07:37.001Z,248.23
2023-06-30T03:08:36.938Z,249.22
2023-06-30T03:09:36.947Z,249.33
2023-06-30T03:10:37.209Z,248.16
2023-06-30T03:11:36.962Z,248.54
2023-06-30T03:12:36.945Z,248.50
2023-06-30T03:13:36.948Z,248.68
2023-06-30T03:14:36.958Z,249.45
2023-06-30T03:15:36.970Z,249.26
2023-06-30T03:16:37.005Z,249.29
2023-06-30T03:17:37.006Z,248.83
2023-06-30T03:18:36.997Z,250.00
2023-06-30T03:19:37.008Z,249.24
2023-06-30T03:20:37.011Z,249.26
2023-06-30T03:21:37.006Z,249.94
2023-06-30T03:22:37.025Z,249.14
2023-06-30T03:23:37.041Z,249.86
2023-06-30T03:24:37.027Z,249.59
2023-06-30T03:25:37.039Z,249.05
2023-06-30T03:26:37.073Z,248.79
2023-06-30T03:27:37.073Z,249.44
2023-06-30T03:28:37.079Z,249.49
2023-06-30T03:29:37.088Z,248.57
2023-06-30T03:30:37.127Z,248.75
2023-06-30T03:31:37.159Z,249.02
2023-06-30T03:32:37.155Z,249.32
2023-06-30T03:33:37.129Z,248.81
2023-06-30T03:34:37.162Z,248.37
2023-06-30T03:35:37.170Z,249.65
2023-06-30T03:36:37.197Z,248.44
2023-06-30T03:37:37.203Z,248.68
2023-06-30T03:38:37.229Z,248.43
2023-06-30T03:39:37.230Z,248.60
2023-06-30T03:40:37.321Z,248.16
2023-06-30T03:41:37.274Z,249.14
2023-06-30T03:42:37.288Z,248.90
2023-06-30T03:43:37.269Z,248.63
2023-06-30T03:44:37.304Z,248.78
2023-06-30T03:45:37.332Z,249.18
2023-06-30T03:46:37.422Z,248.49
2023-06-30T03:47:37.323Z,248.86
2023-06-30T03:48:37.398Z,249.35
2023-06-30T03:49:37.348Z,248.94
2023-06-30T03:50:37.368Z,249.73
2023-06-30T03:51:37.392Z,249.17
2023-06-30T03:52:37.395Z,248.99
2023-06-30T03:53:37.361Z,249.16
2023-06-30T03:54:37.400Z,248.85
2023-06-30T03:55:37.733Z,248.97
2023-06-30T03:56:37.373Z,249.05
2023-06-30T03:57:37.414Z,248.63
2023-06-30T03:58:37.400Z,249.18
2023-06-30T03:59:37.407Z,249.27
2023-06-30T04:00:37.385Z,248.76
2023-06-30T04:01:37.399Z,248.96
2023-06-30T04:02:37.457Z,249.24
2023-06-30T04:03:37.584Z,248.91
2023-06-30T04:04:37.478Z,248.47
2023-06-30T04:05:37.357Z,248.30
2023-06-30T04:06:37.366Z,247.93
2023-06-30T04:07:37.382Z,248.63
2023-06-30T04:08:37.363Z,248.50
2023-06-30T04:09:37.371Z,248.24
2023-06-30T04:10:37.394Z,249.62
2023-06-30T04:11:37.370Z,248.70
2023-06-30T04:12:37.369Z,248.96
2023-06-30T04:13:37.418Z,249.10
2023-06-30T04:14:37.403Z,248.93
2023-06-30T04:15:37.378Z,249.00
2023-06-30T04:16:37.422Z,248.55
2023-06-30T04:17:37.443Z,249.14
2023-06-30T04:18:37.418Z,249.11
2023-06-30T04:19:37.405Z,248.51
2023-06-30T04:20:37.397Z,248.99
2023-06-30T04:21:37.430Z,249.00
2023-06-30T04:22:37.422Z,248.93
2023-06-30T04:23:37.513Z,249.57
2023-06-30T04:24:37.420Z,248.58
2023-06-30T04:25:37.441Z,248.76
2023-06-30T04:26:37.449Z,248.97
2023-06-30T04:27:37.498Z,249.03
2023-06-30T04:28:37.485Z,249.26
2023-06-30T04:29:37.531Z,248.21
2023-06-30T04:30:37.754Z,249.20
2023-06-30T04:31:37.657Z,249.33
2023-06-30T04:32:37.659Z,248.99
2023-06-30T04:33:37.605Z,249.96
2023-06-30T04:34:37.622Z,250.00
2023-06-30T04:35:37.801Z,248.99
2023-06-30T04:36:37.650Z,249.57
2023-06-30T04:37:37.671Z,248.80
2023-06-30T04:38:37.727Z,249.32
2023-06-30T04:39:37.706Z,248.16
2023-06-30T04:40:37.737Z,247.14
2023-06-30T04:41:37.742Z,247.51
2023-06-30T04:42:37.786Z,247.67
2023-06-30T04:43:37.783Z,247.27
2023-06-30T04:44:37.793Z,246.72
2023-06-30T04:45:37.831Z,246.86
2023-06-30T04:46:37.947Z,246.90
2023-06-30T04:47:37.908Z,246.58
2023-06-30T04:48:37.885Z,246.35
2023-06-30T04:49:37.917Z,246.30
2023-06-30T04:50:37.939Z,247.52
2023-06-30T04:51:37.951Z,247.22
2023-06-30T04:52:37.978Z,247.00
2023-06-30T04:53:38.010Z,247.34
2023-06-30T04:54:38.017Z,247.05
2023-06-30T04:55:38.095Z,247.85
2023-06-30T04:56:38.085Z,247.65
2023-06-30T04:57:38.091Z,247.68
2023-06-30T04:58:38.118Z,247.35
2023-06-30T04:59:38.138Z,247.64
2023-06-30T05:00:38.150Z,248.00
2023-06-30T05:01:38.244Z,248.79
2023-06-30T05:02:38.267Z,249.13
2023-06-30T05:03:38.241Z,249.02
2023-06-30T05:04:38.252Z,249.03
2023-06-30T05:05:38.276Z,249.01
2023-06-30T05:06:38.296Z,249.85
2023-06-30T05:07:38.372Z,249.62
2023-06-30T05:08:38.316Z,249.27
2023-06-30T05:09:38.314Z,249.22
2023-06-30T05:10:38.366Z,249.33
2023-06-30T05:11:38.378Z,249.10
2023-06-30T05:12:38.389Z,249.17
2023-06-30T05:13:38.395Z,249.03
2023-06-30T05:14:38.417Z,249.38
2023-06-30T05:15:38.578Z,248.47
2023-06-30T05:16:38.591Z,248.11
2023-06-30T05:17:38.562Z,248.02
2023-06-30T05:18:38.484Z,247.82
2023-06-30T05:19:38.505Z,247.12
2023-06-30T05:20:38.541Z,247.13
2023-06-30T05:21:38.572Z,247.03
2023-06-30T05:22:38.584Z,247.28
2023-06-30T05:23:38.701Z,246.38
2023-06-30T05:24:38.637Z,246.90
2023-06-30T05:25:38.708Z,247.56
2023-06-30T05:26:38.719Z,247.78
2023-06-30T05:27:38.735Z,247.27
2023-06-30T05:28:38.861Z,246.39
2023-06-30T05:29:38.781Z,246.73
2023-06-30T05:30:38.830Z,246.48
2023-06-30T05:31:38.855Z,246.00
2023-06-30T05:32:38.948Z,247.03
2023-06-30T05:33:38.887Z,251.05
2023-06-30T05:34:38.897Z,249.75
2023-06-30T05:35:38.906Z,250.00
2023-06-30T05:36:38.918Z,247.58
2023-06-30T05:37:38.978Z,245.40
2023-06-30T05:38:38.981Z,244.66
2023-06-30T05:39:39.024Z,241.79
2023-06-30T05:40:39.069Z,241.73
2023-06-30T05:41:39.133Z,242.07
2023-06-30T05:42:39.156Z,242.17
2023-06-30T05:43:39.205Z,241.48
2023-06-30T05:44:39.301Z,241.73
2023-06-30T05:45:39.310Z,240.83
2023-06-30T05:46:39.434Z,239.56
2023-06-30T05:47:39.448Z,240.13
2023-06-30T05:48:39.485Z,239.00
2023-06-30T05:49:39.554Z,238.72
2023-06-30T05:50:40.931Z,239.49
2023-06-30T05:51:39.589Z,240.36
2023-06-30T05:52:39.629Z,240.84
2023-06-30T05:53:39.570Z,241.66
2023-06-30T05:54:39.570Z,241.58
2023-06-30T05:55:39.597Z,240.21
2023-06-30T05:56:39.564Z,238.02
2023-06-30T05:57:39.547Z,236.75
2023-06-30T05:58:39.550Z,235.37
2023-06-30T05:59:39.534Z,235.92
2023-06-30T06:00:39.541Z,234.81
2023-06-30T06:01:39.594Z,233.13
2023-06-30T06:02:39.630Z,231.53
2023-06-30T06:03:39.653Z,227.64
2023-06-30T06:04:39.742Z,224.09
2023-06-30T06:05:39.935Z,222.24
2023-06-30T06:06:39.504Z,223.66
2023-06-30T06:07:39.569Z,225.57
2023-06-30T06:08:39.495Z,226.76
2023-06-30T06:09:39.492Z,226.98
2023-06-30T06:10:39.799Z,227.14
2023-06-30T06:11:39.465Z,226.96
2023-06-30T06:12:39.492Z,223.99
2023-06-30T06:13:39.455Z,220.86
2023-06-30T06:14:39.445Z,218.77
2023-06-30T06:15:39.433Z,217.39
2023-06-30T06:16:39.451Z,215.53
2023-06-30T06:17:39.572Z,214.65
2023-06-30T06:18:39.438Z,213.31
2023-06-30T06:19:39.404Z,213.99
2023-06-30T06:20:39.420Z,215.16
2023-06-30T06:21:39.396Z,215.87
2023-06-30T06:22:39.381Z,215.98
2023-06-30T06:23:39.386Z,215.13
2023-06-30T06:24:39.384Z,215.52
2023-06-30T06:25:39.380Z,214.22
2023-06-30T06:26:39.348Z,215.50
2023-06-30T06:27:39.366Z,216.22
2023-06-30T06:28:39.360Z,216.48
2023-06-30T06:29:39.345Z,219.37
2023-06-30T06:30:39.344Z,219.21
2023-06-30T06:31:39.314Z,218.11
2023-06-30T06:32:39.410Z,220.81
2023-06-30T06:33:39.401Z,219.55
2023-06-30T06:34:39.467Z,219.70
2023-06-30T06:35:39.554Z,219.49
2023-06-30T06:36:39.564Z,217.43
2023-06-30T06:37:39.606Z,217.83
2023-06-30T06:38:39.666Z,217.76
2023-06-30T06:39:39.695Z,220.30
2023-06-30T06:40:39.744Z,220.61
2023-06-30T06:41:39.781Z,221.57
2023-06-30T06:42:39.831Z,222.09
2023-06-30T06:43:39.896Z,221.06
2023-06-30T06:44:40.665Z,221.12
2023-06-30T06:45:40.040Z,221.17
2023-06-30T06:46:40.178Z,220.85
2023-06-30T06:47:40.167Z,217.66
2023-06-30T06:48:40.149Z,212.45
2023-06-30T06:49:40.115Z,211.50
2023-06-30T06:50:40.127Z,210.76
2023-06-30T06:51:40.147Z,211.38
2023-06-30T06:52:40.153Z,210.90
2023-06-30T06:53:40.165Z,211.10
2023-06-30T06:54:40.177Z,212.12
2023-06-30T06:55:40.194Z,211.64
2023-06-30T06:56:40.207Z,213.42
2023-06-30T06:57:40.258Z,214.64
2023-06-30T06:58:40.216Z,214.59
2023-06-30T06:59:40.240Z,215.23
2023-06-30T07:00:40.266Z,214.38
2023-06-30T07:01:40.292Z,211.66
2023-06-30T07:02:40.330Z,210.24
2023-06-30T07:03:40.330Z,207.38
2023-06-30T07:04:40.313Z,205.92
2023-06-30T07:05:40.341Z,204.63
2023-06-30T07:06:40.380Z,202.93
2023-06-30T07:07:40.444Z,202.19
2023-06-30T07:08:40.487Z,199.23
2023-06-30T07:09:40.441Z,198.51
2023-06-30T07:10:40.520Z,198.88
2023-06-30T07:11:40.515Z,199.14
2023-06-30T07:12:40.550Z,199.03
2023-06-30T07:13:40.573Z,199.10
2023-06-30T07:14:41.604Z,198.94
2023-06-30T07:15:40.637Z,198.93
2023-06-30T07:16:40.688Z,201.21
2023-06-30T07:17:40.778Z,201.64
2023-06-30T07:18:40.759Z,202.89
2023-06-30T07:19:40.733Z,202.27
2023-06-30T07:20:40.766Z,202.68
2023-06-30T07:21:40.931Z,202.25
2023-06-30T07:22:40.805Z,200.79
2023-06-30T07:23:40.835Z,197.82
2023-06-30T07:24:43.765Z,197.28
2023-06-30T07:25:40.887Z,196.55
2023-06-30T07:26:40.870Z,205.40
2023-06-30T07:27:40.861Z,208.47
2023-06-30T07:28:40.833Z,207.61
2023-06-30T07:29:40.891Z,205.48
2023-06-30T07:30:40.827Z,206.26
2023-06-30T07:31:40.856Z,206.45
2023-06-30T07:32:40.858Z,206.13
2023-06-30T07:33:40.802Z,206.50
2023-06-30T07:34:40.811Z,206.57
2023-06-30T07:35:40.835Z,206.55
2023-06-30T07:36:40.810Z,204.44
2023-06-30T07:37:40.773Z,204.44
2023-06-30T07:38:40.768Z,204.54
2023-06-30T07:39:40.756Z,204.75
2023-06-30T07:40:54.965Z,205.12
2023-06-30T07:41:41.762Z,205.14
2023-06-30T07:42:40.744Z,204.97
2023-06-30T07:43:40.731Z,203.56
2023-06-30T07:44:40.744Z,202.98
2023-06-30T07:45:40.777Z,208.77
2023-06-30T07:46:40.803Z,213.86
2023-06-30T07:47:40.850Z,218.32
2023-06-30T07:48:40.760Z,216.86
2023-06-30T07:49:40.703Z,214.66
2023-06-30T07:50:44.962Z,214.77
2023-06-30T07:51:41.689Z,214.85
2023-06-30T07:52:42.164Z,215.34
2023-06-30T07:53:40.927Z,216.21
2023-06-30T07:54:40.971Z,216.21
2023-06-30T07:55:40.972Z,218.19
2023-06-30T07:56:40.997Z,220.51
2023-06-30T07:57:41.071Z,220.47
2023-06-30T07:58:41.055Z,220.92
2023-06-30T07:59:41.062Z,221.31
2023-06-30T08:00:41.105Z,222.19
2023-06-30T08:01:41.130Z,224.53
2023-06-30T08:02:41.221Z,224.35
2023-06-30T08:03:41.497Z,224.91
2023-06-30T08:04:41.462Z,227.21
2023-06-30T08:05:41.503Z,227.92
2023-06-30T08:06:41.282Z,226.64
2023-06-30T08:07:48.541Z,227.33
2023-06-30T08:08:42.293Z,227.40
2023-06-30T08:09:41.282Z,227.87
2023-06-30T08:10:42.233Z,228.83
2023-06-30T08:11:41.263Z,230.04
2023-06-30T08:12:41.254Z,231.30
2023-06-30T08:13:41.254Z,230.66
2023-06-30T08:14:41.266Z,227.54
2023-06-30T08:15:41.373Z,226.10
2023-06-30T08:16:41.285Z,225.17
2023-06-30T08:17:51.852Z,221.50
2023-06-30T08:18:51.296Z,218.84
2023-06-30T08:19:48.597Z,214.91
2023-06-30T08:20:42.215Z,211.90
2023-06-30T08:21:41.251Z,206.79
2023-06-30T08:22:41.213Z,204.99
2023-06-30T08:23:41.208Z,201.42
2023-06-30T08:24:41.210Z,203.71
2023-06-30T08:25:41.205Z,212.74
2023-06-30T08:26:41.179Z,221.69
2023-06-30T08:27:41.169Z,221.24
2023-06-30T08:28:41.155Z,217.04
2023-06-30T08:29:41.141Z,212.44
2023-06-30T08:30:41.155Z,212.79
2023-06-30T08:31:41.133Z,213.20
2023-06-30T08:32:41.170Z,210.41
2023-06-30T08:33:41.448Z,205.72
2023-06-30T08:34:41.114Z,204.58
2023-06-30T08:35:41.128Z,205.56
2023-06-30T08:36:42.356Z,205.45
2023-06-30T08:37:41.127Z,205.52
2023-06-30T08:38:41.100Z,204.74
2023-06-30T08:39:41.076Z,202.86
2023-06-30T08:40:41.092Z,204.95
2023-06-30T08:41:41.376Z,214.85
2023-06-30T08:42:41.082Z,230.80
2023-06-30T08:43:41.052Z,230.41
2023-06-30T08:44:41.055Z,226.92
2023-06-30T08:45:41.038Z,225.17
2023-06-30T08:46:41.426Z,225.51
2023-06-30T08:47:42.931Z,221.75
2023-06-30T08:48:41.009Z,218.99
2023-06-30T08:49:41.006Z,218.31
2023-06-30T08:50:41.034Z,219.52
2023-06-30T08:51:40.996Z,220.42
2023-06-30T08:52:40.995Z,221.72
2023-06-30T08:53:41.013Z,220.18
2023-06-30T08:54:41.867Z,220.22
2023-06-30T08:55:40.978Z,217.69
2023-06-30T08:56:40.988Z,213.10
2023-06-30T08:57:40.970Z,210.89
2023-06-30T08:58:40.944Z,211.49
2023-06-30T08:59:40.942Z,209.46
2023-06-30T09:00:41.011Z,211.32
2023-06-30T09:01:41.046Z,212.60
2023-06-30T09:02:41.218Z,212.45
2023-06-30T09:03:41.141Z,210.69
2023-06-30T09:04:41.109Z,212.29
2023-06-30T09:05:41.140Z,212.44
2023-06-30T09:06:41.164Z,213.46
2023-06-30T09:07:41.439Z,213.40
2023-06-30T09:08:41.249Z,212.40
2023-06-30T09:09:41.317Z,214.36
2023-06-30T09:10:41.307Z,212.43
2023-06-30T09:11:41.337Z,213.26
2023-06-30T09:12:41.378Z,216.26
2023-06-30T09:13:41.376Z,217.35
2023-06-30T09:14:41.417Z,218.79
2023-06-30T09:15:41.446Z,216.81
2023-06-30T09:16:41.516Z,216.60
2023-06-30T09:17:41.567Z,217.66
2023-06-30T09:18:41.519Z,218.98
2023-06-30T09:19:41.554Z,218.26
2023-06-30T09:20:41.608Z,216.65
2023-06-30T09:21:41.614Z,213.42
2023-06-30T09:22:51.548Z,212.28
2023-06-30T09:23:42.662Z,212.37
2023-06-30T09:24:41.622Z,213.20
2023-06-30T09:25:41.663Z,215.08
2023-06-30T09:26:41.605Z,217.81
2023-06-30T09:27:41.589Z,220.12
2023-06-30T09:28:41.589Z,221.13
2023-06-30T09:29:41.589Z,224.85
2023-06-30T09:30:41.570Z,228.22
2023-06-30T09:31:41.600Z,229.22
2023-06-30T09:32:41.590Z,232.79
2023-06-30T09:33:41.556Z,237.34
2023-06-30T09:34:41.553Z,240.64
2023-06-30T09:35:41.582Z,244.63
2023-06-30T09:36:41.601Z,244.99
2023-06-30T09:37:41.701Z,243.11
2023-06-30T09:38:41.733Z,242.25
2023-06-30T09:39:41.740Z,240.50
2023-06-30T09:40:41.889Z,240.47
2023-06-30T09:41:41.831Z,240.23
2023-06-30T09:42:41.912Z,240.60
2023-06-30T09:43:41.904Z,239.57
2023-06-30T09:44:41.956Z,237.21
2023-06-30T09:45:42.421Z,235.14
2023-06-30T09:46:42.129Z,235.77
2023-06-30T09:47:42.146Z,234.41
2023-06-30T09:48:42.122Z,233.63
2023-06-30T09:49:42.218Z,232.60
2023-06-30T09:50:42.250Z,232.69
2023-06-30T09:51:42.279Z,232.51
2023-06-30T09:52:42.336Z,232.68
2023-06-30T09:53:42.444Z,232.01
2023-06-30T09:54:44.934Z,230.82
2023-06-30T09:55:42.657Z,229.91
2023-06-30T09:56:42.405Z,229.38
2023-06-30T09:57:42.449Z,229.65
2023-06-30T09:58:42.409Z,228.80
2023-06-30T09:59:42.389Z,228.97
2023-06-30T10:00:42.400Z,227.56
2023-06-30T10:01:42.441Z,227.52
2023-06-30T10:02:42.445Z,227.10
2023-06-30T10:03:42.424Z,227.01
2023-06-30T10:04:42.391Z,228.12
2023-06-30T10:05:42.384Z,228.77
2023-06-30T10:06:42.397Z,229.34
2023-06-30T10:07:42.343Z,228.28
2023-06-30T10:08:42.318Z,227.41
2023-06-30T10:09:42.316Z,227.71
2023-06-30T10:10:42.350Z,227.04
2023-06-30T10:11:42.306Z,226.29
2023-06-30T10:12:44.247Z,224.88
2023-06-30T10:13:42.279Z,222.01
2023-06-30T10:14:42.305Z,221.21
2023-06-30T10:15:42.431Z,219.12
2023-06-30T10:16:42.263Z,217.73
2023-06-30T10:17:42.419Z,217.73
2023-06-30T10:18:42.294Z,214.87
2023-06-30T10:19:42.232Z,214.11
2023-06-30T10:20:47.935Z,214.09
2023-06-30T10:21:43.227Z,214.15
2023-06-30T10:22:42.218Z,214.42
2023-06-30T10:23:42.203Z,214.76
2023-06-30T10:24:42.200Z,215.73
2023-06-30T10:25:42.196Z,229.53
2023-06-30T10:26:42.250Z,237.13
2023-06-30T10:27:42.224Z,243.08
2023-06-30T10:28:42.189Z,243.77
2023-06-30T10:29:42.168Z,244.50
2023-06-30T10:30:42.174Z,241.28
2023-06-30T10:31:42.169Z,238.32
2023-06-30T10:32:42.217Z,239.05
2023-06-30T10:33:42.184Z,239.30
2023-06-30T10:34:42.156Z,233.98
2023-06-30T10:35:42.149Z,229.46
2023-06-30T10:36:42.127Z,227.57
2023-06-30T10:37:42.132Z,226.35
2023-06-30T10:38:42.116Z,225.69
2023-06-30T10:39:42.117Z,224.46
2023-06-30T10:40:42.110Z,223.01
2023-06-30T10:41:42.092Z,223.25
2023-06-30T10:42:42.129Z,226.58
2023-06-30T10:43:42.090Z,224.37
2023-06-30T10:44:42.101Z,224.55
2023-06-30T10:45:42.150Z,225.60
2023-06-30T10:46:42.144Z,226.61
2023-06-30T10:47:42.097Z,227.85
2023-06-30T10:48:42.085Z,227.51
2023-06-30T10:49:42.078Z,229.85
2023-06-30T10:50:42.113Z,229.58
2023-06-30T10:51:42.089Z,230.76
2023-06-30T10:52:42.116Z,231.96
2023-06-30T10:53:42.111Z,230.09
2023-06-30T10:54:42.159Z,229.25
2023-06-30T10:55:42.143Z,229.14
2023-06-30T10:56:42.137Z,228.55
2023-06-30T10:57:42.158Z,231.12
2023-06-30T10:58:42.181Z,230.58
2023-06-30T10:59:42.159Z,227.20
2023-06-30T11:00:42.162Z,225.94
2023-06-30T11:01:42.158Z,227.49
2023-06-30T11:02:42.333Z,226.65
2023-06-30T11:03:42.315Z,226.82
2023-06-30T11:04:42.228Z,225.37
2023-06-30T11:05:42.202Z,224.30
2023-06-30T11:06:42.148Z,221.35
2023-06-30T11:07:42.220Z,219.80
2023-06-30T11:08:42.179Z,219.85
2023-06-30T11:09:42.167Z,219.92
2023-06-30T11:10:42.190Z,222.38
2023-06-30T11:11:42.170Z,222.78
2023-06-30T11:12:42.177Z,223.59
2023-06-30T11:13:42.168Z,224.48
2023-06-30T11:14:42.178Z,224.71
2023-06-30T11:15:42.212Z,226.37
2023-06-30T11:16:42.207Z,233.80
2023-06-30T11:17:42.256Z,249.39
2023-06-30T11:18:42.371Z,261.36
2023-06-30T11:19:42.275Z,268.68
2023-06-30T11:20:42.288Z,264.67
2023-06-30T11:21:42.335Z,262.32
2023-06-30T11:22:42.393Z,251.04
2023-06-30T11:23:42.473Z,243.54
2023-06-30T11:24:42.485Z,238.77
2023-06-30T11:25:42.549Z,234.82
2023-06-30T11:26:42.600Z,227.84
2023-06-30T11:27:42.649Z,220.88
2023-06-30T11:28:42.709Z,207.73
2023-06-30T11:29:42.788Z,199.52
2023-06-30T11:30:42.864Z,190.50
2023-06-30T11:31:42.940Z,180.01
2023-06-30T11:32:42.945Z,172.12
2023-06-30T11:33:42.952Z,170.17
2023-06-30T11:34:43.021Z,168.53
2023-06-30T11:35:43.070Z,166.48
2023-06-30T11:36:43.437Z,164.12
2023-06-30T11:37:43.191Z,160.69
2023-06-30T11:38:43.249Z,156.55
2023-06-30T11:39:43.271Z,156.02
2023-06-30T11:40:43.321Z,153.18
2023-06-30T11:41:43.342Z,150.04
2023-06-30T11:42:43.349Z,144.50
2023-06-30T11:43:43.347Z,142.70
2023-06-30T11:44:43.362Z,140.61
2023-06-30T11:45:43.640Z,140.02
2023-06-30T11:46:43.404Z,140.73
2023-06-30T11:47:43.402Z,140.86
2023-06-30T11:48:43.405Z,139.04
2023-06-30T11:49:43.368Z,138.89
2023-06-30T11:50:43.534Z,140.65
2023-06-30T11:51:43.370Z,139.71
2023-06-30T11:52:43.360Z,139.88
2023-06-30T11:53:43.374Z,137.31
2023-06-30T11:54:43.406Z,136.44
2023-06-30T11:55:43.598Z,135.00
2023-06-30T11:56:43.426Z,131.99
2023-06-30T11:57:43.423Z,130.90
2023-06-30T11:58:43.445Z,127.45
2023-06-30T11:59:43.462Z,126.04
2023-06-30T12:00:43.789Z,125.77
2023-06-30T12:01:43.492Z,129.06
2023-06-30T12:02:43.601Z,130.08
2023-06-30T12:03:43.680Z,125.24
2023-06-30T12:04:43.680Z,121.50
2023-06-30T12:05:44.026Z,118.82
2023-06-30T12:06:43.763Z,115.25
2023-06-30T12:07:43.801Z,115.57
2023-06-30T12:08:43.861Z,111.45
2023-06-30T12:09:43.931Z,111.65
2023-06-30T12:10:44.378Z,113.92
2023-06-30T12:11:44.039Z,120.50
2023-06-30T12:12:44.103Z,134.60
2023-06-30T12:13:44.158Z,150.85
2023-06-30T12:14:44.233Z,159.44
2023-06-30T12:15:44.539Z,159.88
2023-06-30T12:16:44.407Z,157.49
2023-06-30T12:17:44.487Z,150.40
2023-06-30T12:18:44.394Z,147.39
2023-06-30T12:19:44.442Z,149.25
2023-06-30T12:20:44.514Z,155.03
2023-06-30T12:21:44.552Z,153.54
2023-06-30T12:22:44.582Z,151.32
2023-06-30T12:23:44.700Z,155.80
2023-06-30T12:24:44.684Z,162.66
2023-06-30T12:25:44.875Z,165.89
2023-06-30T12:26:44.793Z,168.01
2023-06-30T12:27:44.867Z,170.76
2023-06-30T12:28:44.888Z,174.09